Carlinville, IL (62626)

3:38 AM CST on December 09, 2016 (GMT -0600)
Carlinville Firehouse | | Change Station

Elev 623 ft 39.28 °N, 89.88 °W | Updated 5 seconds ago

Partly Cloudy
Partly Cloudy
17.8 °F
Feels Like 18 °F
N
0.0
Wind Variable Wind from WSW
Gusts 0.0 mph

Today
High -- | Low -- °F
--% Chance of Precip.
Yesterday
High -- | Low -- °F
Precip. -- in
Pressure 30.57 in
Visibility 10.0 miles
Clouds Clear
Windchill 18 °F
Dew Point 12 °F
Humidity 79%
Rainfall 0.00 in
Snow Depth Not available.
7:07 AM 4:36 PM
Waxing Gibbous, 72% visible
METAR K3LF 090915Z AUTO 28006KT 10SM CLR M07/M10 A3057 RMK AO2 T10751100
Pressure 30.57 in
Visibility 10.0 miles
Clouds Clear
Windchill 18 °F
Dew Point 12 °F
Humidity 79%
Rainfall 0.00 in
Snow Depth Not available.
7:07 AM 4:36 PM
Waxing Gibbous, 72% visible
METAR K3LF 090915Z AUTO 28006KT 10SM CLR M07/M10 A3057 RMK AO2 T10751100

10-Day Weather Forecast

Almanac

Astronomy

Dec. 09, 2016 Rise Set
Actual Time
Civil Twilight
Nautical Twilight
Astronomical Twilight
Moon
Length of Visible Light
Length of Day
Tomorrow will be .
, % of the Moon is Illuminated

Today's Extremes

State Highs State Lows

Community

WunderPhotos

Upload Photos

1,956,371 photos uploaded!

WunderBlog® & News

Nearby

Air Quality

  Air Quality AQ Index Pollutant
Not available.

Snow Depth

Station Depth Elevation

Earthquake Activity

City Distance Mag. Time & Date
Minimum magnitude displayed is 2.5.

Coastal Water Temperatures

Place Temperature

Stations

Nearby Weather Stations

Station Location Temp. Windchill Dew Point Humidity Wind Precip. Elev Updated Type
                   

Watches & Warnings

There are currently no watches in effect.